Time;durP1;ratioP1;P1;durP2;ratioP2;P2;SDS_P1;SDS_P2;PMS_P1;PMS_P2;Temp;Humidity;BMP_temperature;BMP_pressure;BME280_temperature;BME280_humidity;BME280_pressure;Samples;Min_cycle;Max_cycle;Signal;HPM_P1;HPM_P2
2021/08/03 00:03:01;;;;;;;48.53;44.80;;;;;;;14.48;100.00;101442.47;1971950;73;33021;-74
2021/08/03 00:08:34;;;;;;;49.33;45.53;;;;;;;14.49;100.00;101443.30;1971925;73;33031;-71
2021/08/03 00:14:02;;;;;;;47.77;44.13;;;;;;;14.48;100.00;101445.27;1971910;73;32928;-70
2021/08/03 00:19:30;;;;;;;47.00;43.40;;;;;;;14.58;100.00;101438.73;1971900;73;32911;-70
2021/08/03 00:24:55;;;;;;;47.03;43.20;;;;;;;14.56;100.00;101435.38;1972126;73;32901;-70
2021/08/03 00:30:20;;;;;;;47.63;44.00;;;;;;;14.48;100.00;101436.04;1972053;73;32925;-75
2021/08/03 00:35:50;;;;;;;50.17;46.17;;;;;;;14.19;100.00;101422.64;1972066;73;33403;-75
2021/08/03 00:41:17;;;;;;;48.37;44.47;;;;;;;14.22;100.00;101411.70;1971992;71;33095;-75
2021/08/03 00:46:43;;;;;;;47.67;44.00;;;;;;;14.26;100.00;101414.17;1971843;73;33001;-75
2021/08/03 00:52:11;;;;;;;49.03;45.23;;;;;;;14.01;100.00;101416.67;1972160;73;33396;-73
2021/08/03 00:57:38;;;;;;;47.67;43.90;;;;;;;14.07;100.00;101410.48;1971933;73;32903;-71
2021/08/03 01:03:05;;;;;;;47.87;44.17;;;;;;;13.90;100.00;101406.73;1971837;73;32933;-75
2021/08/03 01:08:36;;;;;;;49.07;45.27;;;;;;;13.97;100.00;101414.20;1972114;73;33434;-73
2021/08/03 01:11:09;;;;;;;49.10;45.00;;;;;;;14.06;100.00;101425.57;1934911;74;26197;-70
2021/08/03 01:13:44;;;;;;;49.00;45.00;;;;;;;13.88;100.00;101428.53;1934948;74;26278;-73
2021/08/03 01:16:20;;;;;;;46.73;43.03;;;;;;;13.77;100.00;101433.11;1934834;74;26196;-74
2021/08/03 01:18:55;;;;;;;50.00;46.20;;;;;;;13.70;100.00;101437.62;1934769;74;26253;-71
2021/08/03 01:28:08;;;;;;;48.07;44.37;;;;;;;13.88;100.00;101425.73;2061337;69;32706;-70
2021/08/03 01:30:41;;;;;;;48.47;44.87;;;;;;;13.80;100.00;101430.56;1950755;73;26175;-73
2021/08/03 01:33:12;;;;;;;48.17;44.23;;;;;;;13.71;100.00;101428.68;2030729;71;26177;-74
2021/08/03 01:35:43;;;;;;;47.40;43.90;;;;;;;13.63;100.00;101429.59;2030745;71;26220;-74
2021/08/03 01:38:18;;;;;;;48.00;44.40;;;;;;;13.54;100.00;101424.91;2030596;71;26621;-72
2021/08/03 01:40:51;;;;;;;47.03;43.20;;;;;;;13.43;100.00;101419.98;2030633;71;26162;-70
2021/08/03 01:43:21;;;;;;;48.03;44.53;;;;;;;13.41;100.00;101413.84;2030640;71;26242;-71
2021/08/03 01:45:54;;;;;;;47.00;43.50;;;;;;;13.48;100.00;101412.11;2030600;71;26987;-70
2021/08/03 01:48:25;;;;;;;47.23;43.67;;;;;;;13.44;100.00;101413.25;2030652;70;26169;-74
2021/08/03 01:50:56;;;;;;;48.20;44.20;;;;;;;13.49;100.00;101409.04;2030658;71;26622;-70
2021/08/03 01:53:28;;;;;;;46.47;43.03;;;;;;;13.56;100.00;101406.73;2030647;71;26242;-73
2021/08/03 01:56:01;;;;;;;49.87;46.10;;;;;;;13.61;100.00;101403.07;2030688;71;26233;-74
2021/08/03 01:58:32;;;;;;;49.37;45.17;;;;;;;13.72;100.00;101402.44;2030654;70;26169;-71
2021/08/03 02:01:02;;;;;;;49.53;45.47;;;;;;;13.75;100.00;101407.42;2030710;71;26232;-74
2021/08/03 02:03:34;;;;;;;49.70;45.90;;;;;;;13.76;100.00;101402.12;2030597;71;26201;-70
2021/08/03 02:06:06;;;;;;;49.07;45.27;;;;;;;13.88;100.00;101404.79;2030604;70;26596;-70
2021/08/03 02:08:39;;;;;;;49.63;45.63;;;;;;;13.56;100.00;101399.76;2030628;70;26230;-73
2021/08/03 02:11:10;;;;;;;50.43;46.63;;;;;;;13.57;100.00;101400.59;2030587;71;26161;-70
2021/08/03 02:13:43;;;;;;;48.80;45.07;;;;;;;13.54;100.00;101403.42;2030655;70;26617;-74
2021/08/03 02:16:14;;;;;;;49.30;45.60;;;;;;;13.52;100.00;101404.84;2030637;71;26609;-73
2021/08/03 02:18:46;;;;;;;48.93;44.83;;;;;;;13.48;100.00;101400.94;2030643;70;26193;-73
2021/08/03 02:21:18;;;;;;;47.87;44.27;;;;;;;13.55;100.00;101412.63;1950565;73;26255;-70
2021/08/03 02:23:48;;;;;;;51.20;47.20;;;;;;;13.55;100.00;101410.67;1993797;72;26205;-71
2021/08/03 02:26:19;;;;;;;49.97;46.20;;;;;;;13.55;100.00;101413.47;1991371;72;26320;-73
2021/08/03 02:28:49;;;;;;;49.67;45.87;;;;;;;13.59;100.00;101416.50;1980405;72;26241;-73
2021/08/03 02:31:23;;;;;;;48.80;45.17;;;;;;;13.52;100.00;101411.83;1980408;72;26208;-73
2021/08/03 02:36:53;;;;;;;50.53;46.57;;;;;;;13.58;100.00;101408.69;1972192;72;33002;-73
2021/08/03 02:42:22;;;;;;;52.20;48.03;;;;;;;13.62;100.00;101408.38;1972147;73;33454;-70
2021/08/03 02:47:54;;;;;;;48.73;44.83;;;;;;;13.45;100.00;101415.48;1971909;73;32974;-73
2021/08/03 02:53:26;;;;;;;52.33;48.13;;;;;;;13.30;100.00;101412.27;1971923;73;32904;-71
2021/08/03 02:58:56;;;;;;;52.10;47.90;;;;;;;13.40;100.00;101414.97;1972153;73;33376;-71
2021/08/03 03:04:26;;;;;;;51.00;46.97;;;;;;;13.30;100.00;101412.83;1971943;73;33038;-70
2021/08/03 03:09:54;;;;;;;49.07;45.47;;;;;;;12.96;100.00;101419.14;1971991;73;33404;-76
2021/08/03 03:15:22;;;;;;;48.27;44.77;;;;;;;12.91;100.00;101425.30;1972107;73;32973;-76
2021/08/03 03:20:48;;;;;;;46.10;42.70;;;;;;;12.91;100.00;101419.16;1971830;73;33046;-75
2021/08/03 03:26:15;;;;;;;47.80;44.20;;;;;;;12.73;100.00;101409.49;1971875;73;32980;-71
2021/08/03 03:31:42;;;;;;;48.23;44.63;;;;;;;12.70;100.00;101396.14;1971930;72;32977;-71
2021/08/03 03:37:09;;;;;;;50.03;45.90;;;;;;;12.82;100.00;101390.77;1972190;73;32923;-70
2021/08/03 03:42:36;;;;;;;52.30;48.20;;;;;;;12.87;100.00;101376.25;1971818;73;33017;-75
2021/08/03 03:48:04;;;;;;;48.57;44.77;;;;;;;12.97;100.00;101369.20;1971828;73;32979;-76
2021/08/03 03:53:37;;;;;;;52.93;48.57;;;;;;;12.70;100.00;101371.61;1971830;73;32960;-75
2021/08/03 03:59:04;;;;;;;49.63;45.53;;;;;;;12.57;100.00;101361.08;1972150;73;32949;-73
2021/08/03 04:04:30;;;;;;;48.30;44.30;;;;;;;12.75;100.00;101361.80;1971906;73;32899;-71
2021/08/03 04:10:05;;;;;;;50.87;46.83;;;;;;;12.97;100.00;101362.22;1971892;72;32902;-74
2021/08/03 04:15:31;;;;;;;51.67;47.57;;;;;;;12.60;100.00;101352.14;1971898;72;33034;-71
2021/08/03 04:21:18;;;;;;;49.80;45.90;;;;;;;12.63;100.00;101359.91;1989803;71;32857;-74
2021/08/03 04:26:44;;;;;;;49.20;45.50;;;;;;;12.38;100.00;101356.70;1971874;73;33068;-75
2021/08/03 04:32:08;;;;;;;47.77;44.07;;;;;;;12.69;100.00;101357.39;1971949;73;32956;-73
2021/08/03 04:37:39;;;;;;;51.40;47.20;;;;;;;12.42;100.00;101352.22;1971924;73;33002;-73
2021/08/03 04:43:06;;;;;;;51.17;47.17;;;;;;;12.56;100.00;101351.05;1971832;73;33301;-75
2021/08/03 04:48:30;;;;;;;50.47;46.53;;;;;;;12.64;100.00;101349.05;1972007;72;33059;-70
2021/08/03 04:53:56;;;;;;;50.80;46.67;;;;;;;12.68;100.00;101352.93;1972079;73;33374;-75
2021/08/03 04:59:22;;;;;;;50.63;46.77;;;;;;;12.56;100.00;101360.24;1971880;73;33059;-73
2021/08/03 05:04:47;;;;;;;50.53;46.63;;;;;;;12.78;100.00;101371.84;1971914;73;32896;-73
2021/08/03 05:10:14;;;;;;;52.00;47.80;;;;;;;12.48;100.00;101384.53;1972128;73;33002;-74
2021/08/03 05:15:38;;;;;;;54.03;49.77;;;;;;;12.71;100.00;101390.81;1972036;73;33417;-75
2021/08/03 05:21:03;;;;;;;56.47;51.67;;;;;;;13.12;100.00;101404.57;1971883;73;32965;-75
2021/08/03 05:26:28;;;;;;;53.63;49.53;;;;;;;12.98;100.00;101402.10;1972136;73;33002;-74
2021/08/03 05:31:58;;;;;;;53.90;49.90;;;;;;;12.89;100.00;101403.27;1971932;73;33085;-75
2021/08/03 05:37:23;;;;;;;51.30;47.50;;;;;;;12.85;100.00;101405.52;1971949;73;32889;-70
2021/08/03 05:42:49;;;;;;;51.73;47.53;;;;;;;12.91;100.00;101408.57;1971937;72;32896;-75
2021/08/03 05:48:14;;;;;;;52.93;48.97;;;;;;;12.95;100.00;101405.48;1972110;72;33539;-74
2021/08/03 05:53:39;;;;;;;54.13;49.97;;;;;;;13.29;100.00;101410.59;1971893;73;33033;-70
2021/08/03 05:59:03;;;;;;;55.57;51.47;;;;;;;13.40;100.00;101414.97;1971954;73;32898;-70
2021/08/03 06:04:30;;;;;;;55.60;51.40;;;;;;;13.68;100.00;101418.94;1971840;73;32876;-75
2021/08/03 06:09:57;;;;;;;57.17;52.83;;;;;;;13.83;100.00;101425.78;1971935;73;32961;-70
2021/08/03 06:15:23;;;;;;;54.17;49.80;;;;;;;13.88;100.00;101427.69;1971930;73;32891;-71
2021/08/03 06:20:50;;;;;;;57.57;53.00;;;;;;;13.90;100.00;101417.08;1971834;73;33033;-71
2021/08/03 06:26:17;;;;;;;57.10;52.80;;;;;;;14.06;100.00;101422.22;1971899;73;33021;-71
2021/08/03 06:31:45;;;;;;;60.53;55.80;;;;;;;14.17;100.00;101426.28;1972202;72;33451;-72
2021/08/03 06:37:14;;;;;;;57.13;52.63;;;;;;;14.31;100.00;101424.47;1971909;73;32955;-73
2021/08/03 06:42:45;;;;;;;54.47;50.17;;;;;;;14.50;100.00;101419.22;1972088;73;33349;-72
2021/08/03 06:48:13;;;;;;;54.87;50.37;;;;;;;14.64;100.00;101432.48;1971897;73;32991;-73
2021/08/03 06:53:42;;;;;;;55.20;50.77;;;;;;;14.75;100.00;101429.29;1972130;73;33466;-71
2021/08/03 06:59:10;;;;;;;58.73;54.33;;;;;;;14.94;100.00;101441.33;1972071;73;32947;-76
2021/08/03 07:04:41;;;;;;;59.67;55.07;;;;;;;15.02;100.00;101438.42;1971873;73;33014;-76
2021/08/03 07:10:10;;;;;;;55.17;50.70;;;;;;;15.12;100.00;101437.45;1972113;73;33511;-72
2021/08/03 07:15:38;;;;;;;58.30;53.83;;;;;;;15.15;100.00;101438.25;1971908;72;32915;-74
2021/08/03 07:21:05;;;;;;;57.77;52.73;;;;;;;15.44;100.00;101448.19;1971861;72;32987;-74
2021/08/03 07:26:32;;;;;;;58.43;54.13;;;;;;;15.52;100.00;101440.27;1972102;73;32968;-73
2021/08/03 07:31:57;;;;;;;59.00;54.40;;;;;;;15.67;100.00;101434.40;1971883;73;32886;-72
2021/08/03 07:37:21;;;;;;;59.53;54.57;;;;;;;15.59;100.00;101433.69;1971909;73;32952;-72
2021/08/03 07:42:47;;;;;;;57.57;52.87;;;;;;;15.65;100.00;101429.69;1972088;73;33469;-71
2021/08/03 07:48:12;;;;;;;54.13;49.93;;;;;;;15.86;100.00;101429.61;1971881;73;32891;-73
2021/08/03 07:53:37;;;;;;;58.87;54.00;;;;;;;16.03;100.00;101432.66;1971825;73;32932;-74
2021/08/03 07:59:02;;;;;;;53.27;49.00;;;;;;;16.34;100.00;101435.14;1972077;73;33475;-75
2021/08/03 08:04:27;;;;;;;48.07;44.47;;;;;;;16.61;100.00;101425.95;1972082;73;33381;-77
2021/08/03 08:10:13;;;;;;;50.63;46.63;;;;;;;16.72;100.00;101421.81;2016264;71;33323;-77
2021/08/03 08:15:57;;;;;;;48.07;44.47;;;;;;;17.25;100.00;101415.56;2016345;71;31480;-75
2021/08/03 08:21:41;;;;;;;49.70;45.90;;;;;;;17.54;100.00;101409.56;1990725;71;31481;-75
2021/08/03 08:27:06;;;;;;;47.77;43.77;;;;;;;17.80;100.00;101392.33;1972004;73;30976;-77
2021/08/03 08:32:30;;;;;;;46.50;42.47;;;;;;;18.49;100.00;101385.66;1972083;73;31477;-76
2021/08/03 08:37:55;;;;;;;40.93;37.73;;;;;;;18.39;100.00;101377.52;1972047;73;33117;-74
2021/08/03 08:43:20;;;;;;;40.93;37.90;;;;;;;18.54;100.00;101375.70;1972102;73;31437;-74
2021/08/03 08:48:46;;;;;;;40.30;37.30;;;;;;;18.76;100.00;101360.12;1972174;73;31534;-75
2021/08/03 08:54:10;;;;;;;41.33;38.20;;;;;;;18.53;100.00;101348.13;1972050;73;31005;-75
2021/08/03 08:59:55;;;;;;;40.77;37.70;;;;;;;18.94;100.00;101345.50;1996047;71;30914;-76
2021/08/03 09:05:37;;;;;;;40.33;37.30;;;;;;;19.19;100.00;101343.27;1971927;73;31029;-75
2021/08/03 09:11:10;;;;;;;41.80;38.67;;;;;;;19.10;100.00;101332.58;1971935;73;31062;-76
2021/08/03 09:16:51;;;;;;;44.63;41.50;;;;;;;19.57;100.00;101329.92;1972081;73;33355;-76
2021/08/03 09:22:29;;;;;;;45.70;42.53;;;;;;;19.51;100.00;101327.28;1972116;73;31508;-72
2021/08/03 09:28:09;;;;;;;38.27;35.57;;;;;;;19.70;100.00;101325.52;1972110;73;31498;-77
2021/08/03 09:33:36;;;;;;;40.17;37.27;;;;;;;19.87;100.00;101324.05;1972236;73;30952;-77
2021/08/03 09:39:01;;;;;;;38.83;36.23;;;;;;;19.87;100.00;101328.86;1972188;73;31448;-76
2021/08/03 09:44:28;;;;;;;38.70;36.10;;;;;;;19.76;100.00;101326.17;1972064;73;30950;-75
2021/08/03 09:49:56;;;;;;;38.87;36.47;;;;;;;19.79;100.00;101329.14;1971916;73;30971;-75
2021/08/03 09:55:25;;;;;;;37.03;34.67;;;;;;;19.82;100.00;101330.45;1971895;73;31026;-75
2021/08/03 10:01:01;;;;;;;38.27;35.77;;;;;;;19.34;100.00;101315.99;1971905;73;30948;-75
2021/08/03 10:06:25;;;;;;;38.87;36.37;;;;;;;19.79;100.00;101331.13;1972146;73;31424;-77
2021/08/03 10:11:53;;;;;;;37.70;35.30;;;;;;;20.14;100.00;101324.22;1972197;73;33366;-77
2021/08/03 10:17:19;;;;;;;34.50;32.30;;;;;;;20.31;100.00;101316.28;1971958;73;30996;-72
2021/08/03 10:22:47;;;;;;;34.70;32.60;;;;;;;20.14;100.00;101318.58;1971854;71;30942;-71
2021/08/03 10:28:22;;;;;;;32.03;30.20;;;;;;;20.23;100.00;101307.25;1972134;73;31051;-71
2021/08/03 10:33:47;;;;;;;34.20;32.30;;;;;;;20.48;100.00;101301.25;1972108;73;31491;-74
2021/08/03 10:39:52;;;;;;;36.40;34.13;;;;;;;20.60;100.00;101296.52;1971900;73;30988;-74
2021/08/03 10:45:18;;;;;;;34.07;32.17;;;;;;;20.76;100.00;101296.73;1972047;73;31459;-78
2021/08/03 10:50:43;;;;;;;35.03;33.03;;;;;;;20.60;100.00;101295.69;1972138;72;31443;-76
2021/08/03 10:56:07;;;;;;;36.33;33.90;;;;;;;20.83;100.00;101281.51;1971966;73;30938;-78
2021/08/03 11:01:46;;;;;;;31.90;29.90;;;;;;;20.97;100.00;101277.80;1972129;72;31443;-84
2021/08/03 11:04:48;;;;;;;30.13;27.70;;;;;;;21.08;100.00;101288.11;1934699;74;24124;-77
2021/08/03 11:10:37;;;;;;;17.97;16.27;;;;;;;20.96;100.00;101274.76;1971875;73;30970;-78
2021/08/03 11:16:03;;;;;;;16.87;15.47;;;;;;;21.19;100.00;101254.88;1971950;73;31041;-74
2021/08/03 11:21:51;;;;;;;15.83;14.63;;;;;;;20.97;100.00;101258.03;1956370;73;31552;-73
2021/08/03 11:27:28;;;;;;;13.47;12.77;;;;;;;21.23;100.00;101238.88;1972146;73;31540;-74
2021/08/03 11:32:52;;;;;;;12.60;12.10;;;;;;;21.33;100.00;101238.45;1971922;73;31013;-73
2021/08/03 11:38:22;;;;;;;13.40;12.75;;;;;;;21.38;100.00;101230.92;1971931;73;31034;-74
2021/08/03 11:43:53;;;;;;;14.20;13.60;;;;;;;21.48;100.00;101231.91;1971901;73;31047;-75
2021/08/03 11:49:22;;;;;;;14.90;14.13;;;;;;;21.33;100.00;101227.73;1971971;73;31044;-74
2021/08/03 11:54:49;;;;;;;14.70;13.80;;;;;;;21.12;100.00;101244.73;1971994;72;31669;-73
2021/08/03 12:00:25;;;;;;;22.43;20.77;;;;;;;21.20;100.00;101231.69;1971946;73;31126;-72
2021/08/03 12:05:51;;;;;;;15.50;14.60;;;;;;;21.45;100.00;101238.23;1971931;73;30990;-73
2021/08/03 12:11:24;;;;;;;13.60;12.90;;;;;;;21.45;100.00;101229.75;1971892;72;31053;-73
2021/08/03 12:16:54;;;;;;;14.80;13.88;;;;;;;21.55;100.00;101218.84;1972217;73;31469;-73
2021/08/03 12:22:31;;;;;;;14.27;13.63;;;;;;;21.44;100.00;101226.09;1947278;73;31474;-74
2021/08/03 12:28:02;;;;;;;13.00;12.45;;;;;;;21.62;100.00;101211.18;1971886;72;31075;-74
2021/08/03 12:33:33;;;;;;;14.13;13.32;;;;;;;21.55;100.00;101206.12;1971933;73;31060;-74
2021/08/03 12:39:22;;;;;;;13.75;13.15;;;;;;;21.72;100.00;101201.66;1971928;73;30957;-73
2021/08/03 12:45:15;;;;;;;13.08;12.18;;;;;;;21.90;100.00;101197.20;1971947;73;31066;-73
2021/08/03 12:50:53;;;;;;;12.98;12.03;;;;;;;21.85;100.00;101196.84;1971927;73;31031;-72
2021/08/03 12:56:30;;;;;;;13.10;12.40;;;;;;;21.86;100.00;101192.02;1972162;73;31070;-73
2021/08/03 13:01:54;;;;;;;12.18;11.63;;;;;;;21.65;100.00;101192.92;1972178;73;31042;-74
2021/08/03 13:07:20;;;;;;;13.45;12.70;;;;;;;21.76;100.00;101194.13;1972035;73;31458;-77
2021/08/03 13:12:44;;;;;;;13.03;11.95;;;;;;;21.77;100.00;101186.47;1971963;73;30962;-72
2021/08/03 13:18:09;;;;;;;12.68;11.97;;;;;;;21.79;100.00;101189.75;1972142;73;31499;-72
2021/08/03 13:23:35;;;;;;;12.15;11.45;;;;;;;21.50;100.00;101177.24;1971969;73;31025;-74
2021/08/03 13:29:03;;;;;;;12.00;11.40;;;;;;;21.48;100.00;101186.67;1972154;73;31043;-73
2021/08/03 13:34:28;;;;;;;12.55;11.80;;;;;;;21.12;100.00;101145.85;1972148;72;31566;-74
2021/08/03 13:39:51;;;;;;;13.43;12.90;;;;;;;;;;1971908;73;31053;-75
2021/08/03 13:42:22;;;;;;;12.98;12.13;;;;;;;21.23;100.00;101179.54;1934775;74;24140;-75
2021/08/03 13:47:46;;;;;;;11.78;11.08;;;;;;;21.58;100.00;101170.66;1972107;73;31450;-74
2021/08/03 13:53:11;;;;;;;11.55;10.95;;;;;;;21.76;100.00;101175.74;1971907;73;30969;-74
2021/08/03 13:58:36;;;;;;;11.75;11.15;;;;;;;21.50;100.00;101174.41;1971902;73;31043;-74
2021/08/03 14:04:01;;;;;;;12.95;12.23;;;;;;;21.16;100.00;101179.87;1972071;73;31026;-76
2021/08/03 14:09:26;;;;;;;12.45;11.73;;;;;;;20.80;100.00;101175.70;1971833;73;31038;-75
2021/08/03 14:14:52;;;;;;;12.95;12.35;;;;;;;20.89;100.00;101173.63;1972093;73;31060;-75
2021/08/03 14:20:17;;;;;;;11.70;11.00;;;;;;;21.13;100.00;101174.34;1971859;73;30963;-75
2021/08/03 14:25:41;;;;;;;12.65;12.03;;;;;;;21.69;100.00;101167.00;1972116;73;31427;-76
2021/08/03 14:31:12;;;;;;;11.80;11.20;;;;;;;22.14;100.00;101161.25;1972141;73;31480;-76
2021/08/03 14:36:36;;;;;;;12.43;11.78;;;;;;;22.32;100.00;101165.23;1972113;73;30957;-75
2021/08/03 14:42:01;;;;;;;17.75;16.85;;;;;;;22.28;100.00;101165.72;1960359;71;31498;-75
2021/08/03 14:47:28;;;;;;;12.50;12.00;;;;;;;22.38;100.00;101167.45;1971890;73;31064;-75
2021/08/03 14:52:53;;;;;;;12.45;11.85;;;;;;;22.34;100.00;101169.34;1971929;73;30961;-75
2021/08/03 14:58:18;;;;;;;11.88;11.38;;;;;;;22.45;100.00;101167.69;1971909;73;31020;-73
2021/08/03 15:03:43;;;;;;;12.47;11.78;;;;;;;22.49;100.00;101168.62;1971895;73;30954;-77
2021/08/03 15:09:08;;;;;;;26.42;15.40;;;;;;;22.39;100.00;101166.27;1971994;73;31544;-76
2021/08/03 15:14:32;;;;;;;13.25;12.15;;;;;;;22.49;100.00;101165.78;1971907;73;31043;-76
2021/08/03 15:19:59;;;;;;;18.50;12.65;;;;;;;22.49;100.00;101155.87;1972133;73;31089;-76
2021/08/03 15:25:24;;;;;;;14.90;13.00;;;;;;;22.31;100.00;101165.83;1972139;73;31573;-76
2021/08/03 15:30:48;;;;;;;11.88;11.28;;;;;;;22.39;100.00;101152.13;1971868;73;30969;-74
2021/08/03 15:36:13;;;;;;;13.22;12.25;;;;;;;22.40;100.00;101154.36;1971886;73;30969;-76
2021/08/03 15:42:09;;;;;;;12.47;11.88;;;;;;;22.23;100.00;101149.22;1972088;73;31019;-77
2021/08/03 15:47:51;;;;;;;12.97;12.07;;;;;;;22.32;100.00;101151.08;1972118;72;31030;-74
2021/08/03 15:53:37;;;;;;;13.22;12.00;;;;;;;22.42;100.00;101150.60;1976552;72;31095;-75
2021/08/03 15:59:09;;;;;;;12.20;11.20;;;;;;;22.39;100.00;101152.13;1971917;73;30942;-76
2021/08/03 16:04:34;;;;;;;13.08;12.25;;;;;;;22.25;100.00;101140.35;1971908;73;31049;-75
2021/08/03 16:09:59;;;;;;;13.00;12.30;;;;;;;22.25;100.00;101148.25;1972181;73;30967;-75
2021/08/03 16:15:23;;;;;;;11.20;10.30;;;;;;;22.29;100.00;101145.56;1972062;73;31437;-75
2021/08/03 16:20:53;;;;;;;11.60;11.10;;;;;;;22.27;100.00;101151.33;1971989;73;31032;-74
2021/08/03 16:26:20;;;;;;;11.55;10.90;;;;;;;22.39;100.00;101154.12;1972049;73;31042;-76
2021/08/03 16:31:48;;;;;;;12.20;11.53;;;;;;;22.01;100.00;101142.64;1972061;73;31583;-76
2021/08/03 16:37:21;;;;;;;11.28;10.78;;;;;;;21.87;100.00;101145.56;1972121;73;31429;-75
2021/08/03 16:42:47;;;;;;;12.90;12.28;;;;;;;21.79;100.00;101143.09;1971941;73;30961;-74
2021/08/03 16:48:13;;;;;;;12.67;12.07;;;;;;;21.60;100.00;101149.36;1972082;73;30959;-73
2021/08/03 16:53:38;;;;;;;12.47;11.88;;;;;;;21.29;100.00;101142.83;1971921;73;31104;-74
2021/08/03 16:59:03;;;;;;;12.83;12.17;;;;;;;21.23;100.00;101147.62;1972058;73;30966;-73
2021/08/03 17:04:33;;;;;;;12.93;12.23;;;;;;;21.09;100.00;101144.28;1971910;73;31447;-73
2021/08/03 17:07:08;;;;;;;13.20;12.27;;;;;;;21.14;100.00;101144.90;1933969;74;24579;-73
2021/08/03 17:12:38;;;;;;;12.40;11.80;;;;;;;21.57;100.00;101141.55;1972256;73;31037;-80
2021/08/03 17:18:08;;;;;;;14.15;13.15;;;;;;;21.75;100.00;101147.80;1971888;73;31027;-76
2021/08/03 17:23:38;;;;;;;13.20;12.40;;;;;;;22.04;100.00;101147.58;1972042;73;31034;-80
2021/08/03 17:29:04;;;;;;;12.93;12.13;;;;;;;21.64;100.00;101146.05;1972269;73;31488;-79
2021/08/03 17:34:49;;;;;;;13.27;12.47;;;;;;;21.10;100.00;101154.39;2016543;71;30874;-74
2021/08/03 17:40:36;;;;;;;13.00;12.40;;;;;;;20.86;100.00;101160.21;2016508;71;30962;-76
2021/08/03 17:46:03;;;;;;;13.77;13.10;;;;;;;20.51;100.00;101159.45;1972070;73;30954;-72
2021/08/03 17:51:31;;;;;;;14.43;13.63;;;;;;;20.41;100.00;101163.50;1972205;73;31555;-71
2021/08/03 17:56:59;;;;;;;14.43;13.83;;;;;;;20.53;100.00;101164.17;1971995;73;30966;-72
2021/08/03 18:02:25;;;;;;;16.07;15.27;;;;;;;20.39;100.00;101165.27;1971958;73;30978;-70
2021/08/03 18:07:52;;;;;;;14.30;13.60;;;;;;;20.48;100.00;101161.55;1972133;72;31477;-72
2021/08/03 18:13:20;;;;;;;14.23;13.43;;;;;;;20.74;100.00;101160.75;1971861;72;30972;-76
2021/08/03 18:18:51;;;;;;;15.33;14.63;;;;;;;20.85;100.00;101171.27;1972197;73;31436;-75
2021/08/03 18:24:20;;;;;;;15.03;14.33;;;;;;;20.35;100.00;101182.65;1971888;73;30972;-74
2021/08/03 18:29:53;;;;;;;14.20;13.50;;;;;;;20.45;100.00;101186.45;1972141;73;31504;-75
2021/08/03 18:35:24;;;;;;;16.83;16.07;;;;;;;20.48;100.00;101188.36;1972008;73;31012;-75
2021/08/03 18:40:50;;;;;;;17.57;16.67;;;;;;;20.20;100.00;101195.91;1972135;73;31462;-73
2021/08/03 18:46:25;;;;;;;15.10;14.37;;;;;;;20.19;100.00;101201.91;1971885;73;31458;-75
2021/08/03 18:51:51;;;;;;;16.30;15.50;;;;;;;20.36;100.00;101200.41;1972033;73;33481;-77
2021/08/03 18:57:18;;;;;;;15.53;14.77;;;;;;;20.22;100.00;101199.80;1971897;73;31067;-75
2021/08/03 19:02:44;;;;;;;15.03;14.23;;;;;;;20.38;100.00;101208.77;1971974;73;31075;-80
2021/08/03 19:08:12;;;;;;;14.80;14.00;;;;;;;20.43;100.00;101212.80;1971875;73;31077;-75
2021/08/03 19:13:40;;;;;;;14.70;13.90;;;;;;;20.49;100.00;101212.60;1971866;73;30976;-76
2021/08/03 19:19:09;;;;;;;18.90;18.00;;;;;;;20.44;100.00;101217.86;1971934;73;30971;-75
2021/08/03 19:24:44;;;;;;;19.10;17.93;;;;;;;20.32;100.00;101210.13;1971943;73;31080;-74
2021/08/03 19:30:14;;;;;;;18.03;17.03;;;;;;;20.24;100.00;101217.20;1972111;73;31452;-77
2021/08/03 19:35:46;;;;;;;18.20;17.30;;;;;;;20.10;100.00;101209.01;1971972;73;30978;-74
2021/08/03 19:41:11;;;;;;;18.70;17.80;;;;;;;20.06;100.00;101215.09;1971923;73;31182;-74
2021/08/03 19:46:58;;;;;;;21.73;20.73;;;;;;;19.72;100.00;101223.71;2016027;71;30884;-74
2021/08/03 19:52:24;;;;;;;23.17;21.93;;;;;;;19.71;100.00;101228.52;1972134;73;33419;-75
2021/08/03 19:57:51;;;;;;;23.40;22.20;;;;;;;19.77;100.00;101220.68;1972233;73;30963;-77
2021/08/03 20:03:18;;;;;;;25.10;23.80;;;;;;;19.70;100.00;101228.27;1972106;73;31515;-75
2021/08/03 20:08:45;;;;;;;28.37;26.87;;;;;;;19.58;100.00;101235.77;1971933;73;30966;-75
2021/08/03 20:14:10;;;;;;;29.63;28.10;;;;;;;19.46;100.00;101245.77;1971940;73;30923;-77
2021/08/03 20:19:37;;;;;;;31.13;29.43;;;;;;;19.50;100.00;101257.19;1972154;73;31038;-75
2021/08/03 20:25:01;;;;;;;32.43;30.57;;;;;;;19.47;100.00;101252.20;1972143;73;31428;-71
2021/08/03 20:30:30;;;;;;;33.93;31.93;;;;;;;19.35;100.00;101255.68;1972079;73;31565;-74
2021/08/03 20:38:56;;;;;;;36.33;33.87;;;;;;;19.14;100.00;101262.34;2061263;69;30554;-71
2021/08/03 20:41:19;;;;;;;37.93;35.23;;;;;;;19.02;100.00;101269.48;2028632;71;24101;-72
2021/08/03 20:43:50;;;;;;;39.30;36.40;;;;;;;18.77;100.00;101275.94;2030648;70;24100;-72
2021/08/03 20:46:20;;;;;;;40.43;37.63;;;;;;;18.68;100.00;101277.91;2030711;71;24614;-77
2021/08/03 20:48:52;;;;;;;41.30;38.37;;;;;;;18.68;100.00;101277.91;2030752;70;24162;-72
2021/08/03 20:51:23;;;;;;;42.23;39.33;;;;;;;18.72;100.00;101287.34;2030659;71;24112;-78
2021/08/03 20:53:53;;;;;;;40.63;37.83;;;;;;;18.65;100.00;101283.60;2030744;70;24117;-79
2021/08/03 20:56:25;;;;;;;39.70;36.90;;;;;;;18.84;100.00;101283.88;2030686;71;24166;-72
2021/08/03 20:58:57;;;;;;;41.63;38.80;;;;;;;18.74;100.00;101284.22;2030642;71;24097;-72
2021/08/03 21:01:30;;;;;;;42.90;39.90;;;;;;;18.57;100.00;101280.20;2030711;71;24196;-78
2021/08/03 21:04:03;;;;;;;43.50;40.50;;;;;;;18.52;100.00;101283.73;2030624;70;24106;-78
2021/08/03 21:06:36;;;;;;;44.70;41.50;;;;;;;18.37;100.00;101285.02;1950699;73;24115;-72
2021/08/03 21:09:08;;;;;;;46.07;42.77;;;;;;;18.26;100.00;101285.08;1950698;73;24113;-79
2021/08/03 21:11:39;;;;;;;46.10;42.90;;;;;;;18.29;100.00;101285.82;2030567;71;24202;-73
2021/08/03 21:14:09;;;;;;;46.03;42.83;;;;;;;18.33;100.00;101288.23;2030744;70;24166;-75
2021/08/03 21:16:43;;;;;;;46.47;43.17;;;;;;;18.37;100.00;101285.02;2030728;71;24116;-74
2021/08/03 21:19:13;;;;;;;45.37;42.17;;;;;;;18.33;100.00;101289.64;2030986;71;24190;-75
2021/08/03 21:21:43;;;;;;;46.53;43.07;;;;;;;18.23;100.00;101289.92;2010034;71;24142;-81
2021/08/03 21:24:13;;;;;;;46.17;42.87;;;;;;;18.28;100.00;101297.39;1993789;72;24147;-75
2021/08/03 21:26:43;;;;;;;46.33;42.90;;;;;;;18.27;100.00;101291.53;1993775;72;26659;-81
2021/08/03 21:29:13;;;;;;;46.37;43.07;;;;;;;18.33;100.00;101291.05;1993826;72;24204;-77
2021/08/03 21:31:43;;;;;;;46.17;42.70;;;;;;;18.35;100.00;101301.41;1993676;72;24150;-72
2021/08/03 21:34:14;;;;;;;47.63;44.40;;;;;;;18.31;100.00;101291.97;1993925;72;24139;-72
2021/08/03 21:36:44;;;;;;;47.33;44.17;;;;;;;18.39;100.00;101291.73;1993727;72;24625;-82
2021/08/03 21:39:14;;;;;;;44.80;41.70;;;;;;;18.55;100.00;101293.78;1993661;72;24267;-71
2021/08/03 21:41:44;;;;;;;47.77;44.30;;;;;;;18.43;100.00;101291.33;1993752;72;24139;-71
2021/08/03 21:44:14;;;;;;;50.40;46.90;;;;;;;18.25;100.00;101296.64;1993846;72;24142;-79
2021/08/03 21:46:45;;;;;;;48.77;45.20;;;;;;;18.30;100.00;101297.91;1993784;72;24229;-72
2021/08/03 21:49:15;;;;;;;48.40;45.07;;;;;;;18.20;100.00;101298.45;1993326;72;24110;-71